Time;durP1;ratioP1;P1;durP2;ratioP2;P2;SDS_P1;SDS_P2;PMS_P1;PMS_P2;Temp;Humidity;BMP_temperature;BMP_pressure;BME280_temperature;BME280_humidity;BME280_pressure;Samples;Min_cycle;Max_cycle;Signal;HPM_P1;HPM_P2
2021/03/09 00:02:01;;;;;;;9.40;3.87;;;;;;;0.48;60.46;101655.03;5137127;27;20545;-51
2021/03/09 00:04:28;;;;;;;7.60;2.93;;;;;;;0.79;58.17;101650.34;5131432;27;20457;-52
2021/03/09 00:06:55;;;;;;;8.27;3.30;;;;;;;0.58;57.48;101649.19;5137581;27;20436;-51
2021/03/09 00:09:21;;;;;;;12.50;4.10;;;;;;;0.48;57.68;101649.94;5136038;27;20676;-52
2021/03/09 00:11:49;;;;;;;5.70;2.50;;;;;;;0.88;58.86;101651.22;5137296;27;20456;-52
2021/03/09 00:14:15;;;;;;;6.70;3.50;;;;;;;0.78;56.80;101644.38;5128627;27;20313;-49
2021/03/09 00:16:42;;;;;;;12.90;3.47;;;;;;;0.91;57.29;101643.91;5136461;27;20203;-50
2021/03/09 00:19:09;;;;;;;8.82;3.25;;;;;;;0.58;56.79;101647.56;5134534;27;20456;-50
2021/03/09 00:21:35;;;;;;;7.47;3.03;;;;;;;0.48;56.80;101644.88;5137257;27;20216;-53
2021/03/09 00:24:02;;;;;;;8.32;2.88;;;;;;;0.40;57.44;101650.09;5135595;27;20749;-47
2021/03/09 00:26:29;;;;;;;8.27;2.90;;;;;;;0.33;57.16;101644.28;5136972;27;20526;-51
2021/03/09 00:28:56;;;;;;;7.93;2.78;;;;;;;0.30;56.37;101641.44;5123106;27;20503;-49
2021/03/09 00:31:23;;;;;;;16.43;6.53;;;;;;;0.47;56.87;101645.63;5124914;27;20212;-51
2021/03/09 00:33:50;;;;;;;7.70;3.63;;;;;;;0.40;57.11;101641.56;5134917;27;20455;-51
2021/03/09 00:36:16;;;;;;;8.38;2.95;;;;;;;0.32;57.15;101638.31;5136535;27;20202;-50
2021/03/09 00:38:43;;;;;;;5.78;3.35;;;;;;;0.27;57.62;101636.97;5134136;27;20617;-49
2021/03/09 00:41:10;;;;;;;10.73;4.00;;;;;;;0.31;57.45;101630.53;5131368;27;20570;-49
2021/03/09 00:43:37;;;;;;;7.77;2.90;;;;;;;0.35;56.94;101630.97;5126348;27;20325;-48
2021/03/09 00:46:04;;;;;;;7.95;2.90;;;;;;;0.30;56.14;101624.56;5136224;27;20471;-52
2021/03/09 00:48:36;;;;;;;8.70;3.78;;;;;;;0.35;56.29;101622.44;5119071;27;20640;-50
2021/03/09 00:51:03;;;;;;;11.73;2.95;;;;;;;0.34;56.15;101624.13;5135778;27;20510;-48
2021/03/09 00:53:29;;;;;;;6.80;3.10;;;;;;;0.33;56.55;101619.78;5134839;27;20229;-47
2021/03/09 00:55:56;;;;;;;11.18;3.95;;;;;;;0.27;56.19;101619.19;5136061;27;20203;-47
2021/03/09 00:58:23;;;;;;;12.45;4.03;;;;;;;0.31;55.24;101613.66;5132637;27;20230;-48
2021/03/09 01:00:54;;;;;;;9.57;3.10;;;;;;;0.34;56.12;101616.50;5136509;27;20297;-50
2021/03/09 01:03:21;;;;;;;7.53;3.20;;;;;;;0.30;55.86;101618.59;5122034;27;20277;-48
2021/03/09 01:05:49;;;;;;;10.82;3.22;;;;;;;0.32;54.69;101607.84;5135915;27;20521;-51
2021/03/09 01:08:16;;;;;;;7.97;3.13;;;;;;;0.26;55.71;101607.25;5133454;27;20237;-48
2021/03/09 01:10:42;;;;;;;32.92;12.23;;;;;;;0.45;56.64;101601.41;5136029;27;20209;-48
2021/03/09 01:13:09;;;;;;;10.00;4.15;;;;;;;0.43;55.14;101597.81;5117240;27;20555;-51
2021/03/09 01:15:36;;;;;;;5.80;2.60;;;;;;;0.59;54.83;101588.38;5135573;27;20494;-49
2021/03/09 01:18:16;;;;;;;10.30;4.03;;;;;;;0.62;53.97;101593.75;5124400;27;20230;-48
2021/03/09 01:20:44;;;;;;;15.35;4.32;;;;;;;0.72;54.33;101589.56;5136035;27;20460;-48
2021/03/09 01:23:10;;;;;;;11.17;3.47;;;;;;;0.55;54.63;101591.38;5134853;27;20226;-49
2021/03/09 01:25:37;;;;;;;11.48;4.38;;;;;;;0.57;54.28;101583.91;5135754;27;20452;-50
2021/03/09 01:28:04;;;;;;;9.25;3.75;;;;;;;0.53;53.84;101583.59;5133028;27;20238;-47
2021/03/09 01:30:32;;;;;;;6.15;2.92;;;;;;;0.59;54.56;101575.69;5135927;28;20286;-50
2021/03/09 01:32:59;;;;;;;8.10;3.03;;;;;;;0.60;53.43;101580.00;5132903;28;20260;-52
2021/03/09 01:35:26;;;;;;;13.40;3.83;;;;;;;0.60;54.04;101574.94;5135319;28;20235;-50
2021/03/09 01:37:53;;;;;;;8.23;3.40;;;;;;;0.49;54.19;101571.38;5134082;28;20237;-49
2021/03/09 01:40:21;;;;;;;9.23;3.28;;;;;;;0.60;54.13;101568.94;5135851;28;20623;-50
2021/03/09 01:42:48;;;;;;;7.60;3.00;;;;;;;0.54;53.92;101564.19;5134566;28;20257;-52
2021/03/09 01:45:15;;;;;;;5.77;2.80;;;;;;;0.48;53.82;101559.44;5135351;28;20444;-48
2021/03/09 01:47:43;;;;;;;8.13;2.77;;;;;;;0.36;54.45;101548.97;5133802;28;20480;-49
2021/03/09 01:50:12;;;;;;;7.65;3.05;;;;;;;0.32;54.13;101557.06;5136241;28;20456;-54
2021/03/09 01:52:39;;;;;;;10.20;3.17;;;;;;;0.39;54.28;101546.75;5133807;28;20222;-50
2021/03/09 01:55:08;;;;;;;7.38;2.85;;;;;;;0.39;54.49;101553.47;5135715;27;20211;-51
2021/03/09 01:57:35;;;;;;;8.65;3.75;;;;;;;0.38;54.69;101542.41;5138783;27;20348;-49
2021/03/09 02:00:05;;;;;;;6.95;2.70;;;;;;;0.29;54.66;101546.59;5140175;27;20226;-51
2021/03/09 02:02:31;;;;;;;6.10;2.28;;;;;;;0.23;54.72;101543.47;5128097;27;20294;-47
2021/03/09 02:04:58;;;;;;;10.55;3.20;;;;;;;0.20;55.03;101531.38;5138225;27;20222;-49
2021/03/09 02:07:25;;;;;;;6.10;2.53;;;;;;;0.26;55.02;101531.09;5127217;27;20226;-52
2021/03/09 02:09:52;;;;;;;8.88;3.13;;;;;;;0.24;55.28;101532.56;5139657;27;20233;-47
2021/03/09 02:12:24;;;;;;;6.70;2.63;;;;;;;0.20;54.86;101523.75;5139530;27;20598;-50
2021/03/09 02:14:59;;;;;;;7.40;2.75;;;;;;;0.17;54.88;101520.03;5153172;27;20218;-49
2021/03/09 02:17:31;;;;;;;9.70;3.45;;;;;;;0.28;58.35;101524.50;5125596;27;20252;-51
2021/03/09 02:20:24;;;;;;;11.85;3.85;;;;;;;0.27;55.13;101520.19;5138451;27;20218;-52
2021/03/09 02:23:11;;;;;;;7.80;2.70;;;;;;;0.25;54.89;101514.03;5124819;27;20230;-49
2021/03/09 02:25:53;;;;;;;6.63;3.00;;;;;;;0.25;54.84;101516.59;5127291;27;20207;-50
2021/03/09 02:28:27;;;;;;;10.00;4.03;;;;;;;0.26;54.94;101511.66;5137843;27;20238;-49
2021/03/09 02:30:56;;;;;;;6.15;2.33;;;;;;;0.27;54.23;101507.50;5129172;27;20490;-50
2021/03/09 02:33:26;;;;;;;13.73;4.50;;;;;;;0.33;54.46;101508.06;5137721;27;20245;-50
2021/03/09 02:35:58;;;;;;;8.18;2.60;;;;;;;0.24;54.15;101505.56;5138522;27;20507;-53
2021/03/09 02:38:26;;;;;;;8.00;2.80;;;;;;;0.27;54.10;101497.34;5137838;27;20238;-51
2021/03/09 02:40:54;;;;;;;6.13;2.53;;;;;;;0.31;53.57;101491.78;5139212;27;20195;-50
2021/03/09 02:43:22;;;;;;;10.90;3.03;;;;;;;0.39;53.72;101492.50;5137141;27;20241;-48
2021/03/09 02:45:50;;;;;;;8.63;2.83;;;;;;;0.26;53.71;101488.81;5138547;27;20620;-50
2021/03/09 02:48:20;;;;;;;6.53;2.10;;;;;;;0.31;53.80;101494.31;5130469;27;20230;-50
2021/03/09 02:50:48;;;;;;;12.52;4.25;;;;;;;0.58;55.42;101494.25;5159711;27;20201;-49
2021/03/09 02:53:15;;;;;;;11.95;3.78;;;;;;;0.79;54.78;101485.19;5144014;27;20545;-52
2021/03/09 02:55:43;;;;;;;9.75;3.50;;;;;;;0.80;52.53;101487.00;5159862;27;20221;-51
2021/03/09 02:58:13;;;;;;;6.78;2.20;;;;;;;0.79;52.51;101480.13;5158908;27;20240;-50
2021/03/09 03:00:41;;;;;;;8.20;3.47;;;;;;;0.34;53.22;101475.94;5159463;27;20213;-53
2021/03/09 03:03:09;;;;;;;9.15;4.13;;;;;;;0.53;53.47;101471.84;5129581;27;20230;-51
2021/03/09 03:05:36;;;;;;;7.93;3.13;;;;;;;0.46;54.98;101476.22;5138313;27;20209;-53
2021/03/09 03:08:05;;;;;;;5.63;2.90;;;;;;;0.35;52.77;101471.03;5128407;27;20683;-50
2021/03/09 03:10:33;;;;;;;6.95;2.72;;;;;;;0.47;53.57;101472.94;5139115;27;20286;-49
2021/03/09 03:12:59;;;;;;;9.82;3.05;;;;;;;0.51;53.39;101470.81;5123915;27;20329;-51
2021/03/09 03:15:26;;;;;;;17.38;6.30;;;;;;;0.58;53.73;101468.84;5138008;27;20213;-48
2021/03/09 03:17:55;;;;;;;9.23;3.10;;;;;;;0.48;53.80;101472.19;5133233;27;20243;-50
2021/03/09 03:20:23;;;;;;;7.15;2.97;;;;;;;0.59;53.05;101468.09;5138479;27;20294;-49
2021/03/09 03:22:51;;;;;;;8.63;2.58;;;;;;;0.42;52.95;101471.59;5136671;27;20232;-50
2021/03/09 03:25:19;;;;;;;10.15;3.25;;;;;;;0.51;53.47;101472.47;5135080;27;20202;-50
2021/03/09 03:27:46;;;;;;;8.77;2.78;;;;;;;0.39;53.06;101473.13;5135717;27;20239;-53
2021/03/09 03:30:15;;;;;;;17.07;4.57;;;;;;;0.36;53.83;101475.34;5138768;27;20194;-51
2021/03/09 03:32:42;;;;;;;8.80;2.50;;;;;;;0.39;53.60;101472.19;5135078;27;20819;-52
2021/03/09 03:35:11;;;;;;;7.95;2.35;;;;;;;0.43;53.22;101468.31;5137662;27;20600;-52
2021/03/09 03:37:38;;;;;;;5.07;2.25;;;;;;;0.42;53.46;101479.22;5124363;27;20226;-48
2021/03/09 03:40:08;;;;;;;18.65;5.45;;;;;;;0.61;53.59;101475.09;5137784;27;20194;-50
2021/03/09 03:42:35;;;;;;;13.88;3.55;;;;;;;0.55;52.96;101478.75;5136943;27;20220;-50
2021/03/09 03:45:03;;;;;;;7.03;2.45;;;;;;;0.47;53.95;101480.56;5137966;27;20238;-51
2021/03/09 03:47:29;;;;;;;6.10;2.88;;;;;;;0.53;52.85;101476.91;5136662;27;20514;-47
2021/03/09 03:50:12;;;;;;;7.25;3.10;;;;;;;0.51;52.42;101475.03;5137875;27;20203;-48
2021/03/09 03:52:45;;;;;;;5.88;2.30;;;;;;;0.56;52.70;101478.84;5121375;27;20285;-48
2021/03/09 03:55:25;;;;;;;6.68;2.42;;;;;;;0.40;52.50;101469.81;5137933;27;20202;-51
2021/03/09 03:57:53;;;;;;;6.47;2.40;;;;;;;0.50;52.69;101469.03;5126963;27;20244;-50
2021/03/09 04:00:20;;;;;;;8.13;2.53;;;;;;;0.55;52.68;101464.38;5136921;27;20484;-49
2021/03/09 04:02:49;;;;;;;6.53;2.47;;;;;;;0.39;52.31;101465.50;5131103;27;20682;-51
2021/03/09 04:05:16;;;;;;;7.22;3.15;;;;;;;0.51;53.43;101464.88;5137138;27;20207;-49
2021/03/09 04:07:43;;;;;;;6.93;2.60;;;;;;;0.66;52.53;101465.38;5135772;27;20253;-51
2021/03/09 04:10:11;;;;;;;7.20;2.60;;;;;;;0.64;52.03;101465.25;5136321;27;20293;-49
2021/03/09 04:12:39;;;;;;;6.70;2.63;;;;;;;0.53;53.47;101468.44;5135373;27;20209;-51
2021/03/09 04:15:07;;;;;;;9.55;2.30;;;;;;;0.49;54.51;101466.34;5136770;27;20607;-48
2021/03/09 04:17:34;;;;;;;6.75;2.72;;;;;;;0.47;53.49;101470.41;5135342;27;20298;-49
2021/03/09 04:20:02;;;;;;;8.43;2.40;;;;;;;0.51;53.00;101472.47;5136741;27;20222;-49
2021/03/09 04:22:29;;;;;;;4.95;2.40;;;;;;;0.51;52.44;101460.66;5135560;27;20210;-52
2021/03/09 04:24:56;;;;;;;6.25;2.78;;;;;;;0.45;53.24;101469.38;5136615;27;20227;-49
2021/03/09 04:27:24;;;;;;;7.10;2.53;;;;;;;0.41;52.86;101468.16;5134793;27;20202;-50
2021/03/09 04:29:53;;;;;;;11.98;3.10;;;;;;;0.47;53.29;101465.31;5135340;27;20224;-50
2021/03/09 04:32:20;;;;;;;6.47;2.45;;;;;;;0.53;53.66;101465.88;5136874;27;20264;-48
2021/03/09 04:34:48;;;;;;;5.53;2.35;;;;;;;0.54;54.28;101462.59;5106694;27;20317;-50
2021/03/09 04:37:34;;;;;;;6.38;2.13;;;;;;;0.55;53.25;101468.59;5129775;27;20222;-49
2021/03/09 04:40:02;;;;;;;8.15;2.75;;;;;;;0.56;53.81;101468.69;5151890;27;20532;-51
2021/03/09 04:42:28;;;;;;;5.75;2.70;;;;;;;0.57;54.01;101470.50;5156534;27;20202;-48
2021/03/09 04:44:56;;;;;;;12.75;3.78;;;;;;;0.51;54.41;101465.75;5157647;27;20312;-51
2021/03/09 04:47:23;;;;;;;5.50;2.78;;;;;;;0.39;54.57;101462.94;5155821;27;20194;-53
2021/03/09 04:49:54;;;;;;;7.10;2.60;;;;;;;0.34;55.96;101468.31;5157113;27;20291;-51
2021/03/09 04:52:21;;;;;;;7.88;2.75;;;;;;;0.36;57.38;101472.81;5157600;27;20194;-47
2021/03/09 04:54:48;;;;;;;6.43;2.88;;;;;;;0.22;58.21;101470.63;5157123;27;20225;-52
2021/03/09 04:57:15;;;;;;;6.03;2.28;;;;;;;0.09;59.06;101469.44;5157704;27;20210;-49
2021/03/09 04:59:41;;;;;;;8.13;2.67;;;;;;;0.18;61.07;101465.97;5155773;27;20317;-51
2021/03/09 05:02:09;;;;;;;5.32;2.55;;;;;;;0.12;61.96;101463.78;5157583;27;20198;-47
2021/03/09 05:04:36;;;;;;;8.88;2.92;;;;;;;0.10;62.70;101461.06;5154828;27;20651;-48
2021/03/09 05:07:03;;;;;;;8.57;3.00;;;;;;;0.13;63.03;101463.00;5153775;27;20290;-50
2021/03/09 05:09:30;;;;;;;5.60;2.38;;;;;;;0.06;63.21;101464.06;5149169;27;20240;-51
2021/03/09 05:11:56;;;;;;;11.80;3.70;;;;;;;-0.11;64.47;101461.56;5136546;27;20217;-50
2021/03/09 05:14:23;;;;;;;13.85;3.78;;;;;;;-0.08;65.13;101462.75;5133837;27;20230;-48
2021/03/09 05:16:49;;;;;;;8.48;3.05;;;;;;;-0.15;65.84;101461.25;5136000;27;20262;-50
2021/03/09 05:19:17;;;;;;;8.80;2.92;;;;;;;-0.10;65.21;101459.16;5134604;27;20239;-50
2021/03/09 05:21:44;;;;;;;9.13;3.22;;;;;;;-0.02;65.83;101460.81;5135288;27;20199;-49
2021/03/09 05:24:11;;;;;;;5.05;2.55;;;;;;;-0.16;65.81;101464.56;5133683;27;20245;-49
2021/03/09 05:26:37;;;;;;;7.95;3.10;;;;;;;-0.20;67.33;101452.31;5135913;27;20285;-48
2021/03/09 05:29:04;;;;;;;7.82;3.22;;;;;;;-0.08;67.17;101456.78;5140059;27;20233;-49
2021/03/09 05:31:31;;;;;;;8.77;3.55;;;;;;;-0.05;67.82;101452.88;5156370;27;20230;-50
2021/03/09 05:33:57;;;;;;;10.70;3.83;;;;;;;0.18;68.04;101454.19;5154543;27;20237;-47
2021/03/09 05:36:25;;;;;;;5.88;3.00;;;;;;;0.15;67.90;101453.03;5157009;27;20225;-48
2021/03/09 05:38:51;;;;;;;7.63;3.63;;;;;;;-0.16;69.04;101453.50;5155841;27;20238;-53
2021/03/09 05:41:18;;;;;;;6.10;2.50;;;;;;;-0.18;69.69;101452.47;5156540;27;20208;-50
2021/03/09 05:43:45;;;;;;;5.50;2.53;;;;;;;-0.35;70.80;101451.75;5143693;27;20253;-51
2021/03/09 05:46:11;;;;;;;8.80;3.47;;;;;;;-0.42;71.97;101455.31;5156449;27;20197;-50
2021/03/09 05:48:38;;;;;;;6.75;2.95;;;;;;;-0.42;71.97;101454.41;5155418;27;20237;-49
2021/03/09 05:51:05;;;;;;;10.30;3.45;;;;;;;-0.55;72.60;101457.41;5157474;27;20292;-48
2021/03/09 05:53:32;;;;;;;9.00;3.08;;;;;;;-0.45;72.47;101459.19;5155119;27;20240;-48
2021/03/09 05:55:59;;;;;;;8.68;3.13;;;;;;;-0.48;72.51;101459.78;5156501;27;20201;-52
2021/03/09 05:58:26;;;;;;;7.10;2.92;;;;;;;-0.47;72.86;101466.66;5154633;27;20255;-53
2021/03/09 06:00:54;;;;;;;8.10;3.20;;;;;;;-0.49;73.38;101458.00;5151268;27;20514;-51
2021/03/09 06:03:21;;;;;;;8.18;3.53;;;;;;;-0.57;74.65;101463.94;5133507;28;20236;-50
2021/03/09 06:05:48;;;;;;;10.85;4.05;;;;;;;-0.66;75.16;101460.53;5134943;28;20199;-49
2021/03/09 06:08:15;;;;;;;10.00;4.30;;;;;;;-0.69;75.21;101462.03;5134032;28;20232;-50
2021/03/09 06:10:42;;;;;;;12.63;4.10;;;;;;;-0.70;75.33;101460.25;5135706;28;20292;-50
2021/03/09 06:13:09;;;;;;;7.43;3.28;;;;;;;-0.63;75.53;101465.88;5133783;28;20234;-52
2021/03/09 06:15:53;;;;;;;9.73;3.70;;;;;;;-0.71;75.93;101460.97;5134659;28;20600;-49
2021/03/09 06:18:23;;;;;;;11.75;3.33;;;;;;;-0.73;75.83;101467.53;5133825;28;20620;-50
2021/03/09 06:21:07;;;;;;;8.65;3.28;;;;;;;-0.73;76.11;101461.56;5137441;27;20636;-48
2021/03/09 06:23:34;;;;;;;7.57;3.53;;;;;;;-0.66;75.98;101468.13;5142448;27;20234;-49
2021/03/09 06:26:01;;;;;;;7.28;3.30;;;;;;;-0.66;76.35;101458.00;5151898;27;20206;-49
2021/03/09 06:28:31;;;;;;;10.93;3.13;;;;;;;-0.68;76.00;101456.22;5141144;27;20243;-50
2021/03/09 06:31:00;;;;;;;8.20;3.42;;;;;;;-0.68;75.57;101451.13;5135335;28;20205;-48
2021/03/09 06:33:27;;;;;;;9.60;3.97;;;;;;;-0.63;75.24;101454.13;5133717;28;20728;-52
2021/03/09 06:35:55;;;;;;;9.45;3.75;;;;;;;-0.72;75.24;101459.19;5134935;28;20207;-48
2021/03/09 06:38:23;;;;;;;8.57;3.47;;;;;;;-0.57;75.49;101454.72;5140437;27;20321;-48
2021/03/09 06:41:11;;;;;;;9.32;3.90;;;;;;;-0.74;74.75;101455.59;5154509;27;20305;-51
2021/03/09 06:43:38;;;;;;;8.18;3.45;;;;;;;-0.71;74.33;101450.81;5157767;27;20268;-49
2021/03/09 06:46:22;;;;;;;8.38;3.30;;;;;;;-0.63;74.11;101456.66;5148770;27;20207;-48
2021/03/09 06:48:54;;;;;;;7.45;3.20;;;;;;;-0.60;74.21;101459.50;5149761;27;20244;-47
2021/03/09 06:51:30;;;;;;;10.82;2.95;;;;;;;-0.51;73.46;101467.09;5153824;27;20211;-47
2021/03/09 06:54:05;;;;;;;7.50;3.38;;;;;;;-0.62;73.36;101462.63;5156926;27;20244;-50
2021/03/09 06:56:34;;;;;;;6.85;3.00;;;;;;;-0.59;73.46;101457.84;5159114;27;20305;-49
2021/03/09 06:59:17;;;;;;;6.47;2.90;;;;;;;-0.60;72.34;101458.59;5157994;27;20237;-48
2021/03/09 07:01:44;;;;;;;7.57;3.50;;;;;;;-0.58;72.48;101454.56;5157361;27;20206;-49
2021/03/09 07:04:20;;;;;;;10.50;3.42;;;;;;;-0.71;72.94;101455.91;5157653;27;20233;-52
2021/03/09 07:06:47;;;;;;;10.20;3.78;;;;;;;-0.64;72.17;101456.50;5155084;27;20214;-47
2021/03/09 07:09:14;;;;;;;10.52;3.63;;;;;;;-0.66;72.22;101455.47;5151063;27;20252;-51
2021/03/09 07:11:43;;;;;;;8.45;3.05;;;;;;;-0.70;72.01;101451.72;5158587;27;20202;-50
2021/03/09 07:14:11;;;;;;;12.40;3.58;;;;;;;-0.69;72.47;101454.44;5156907;27;20237;-49
2021/03/09 07:16:39;;;;;;;13.27;3.33;;;;;;;-0.76;72.53;101452.03;5142843;27;20202;-48
2021/03/09 07:19:06;;;;;;;12.07;3.65;;;;;;;-0.78;73.12;101452.63;5156589;27;20230;-47
2021/03/09 07:21:34;;;;;;;14.63;3.20;;;;;;;-0.68;73.47;101453.69;5158494;27;20216;-50
2021/03/09 07:24:02;;;;;;;6.78;3.13;;;;;;;-0.71;73.11;101458.44;5156523;27;20234;-49
2021/03/09 07:26:29;;;;;;;7.88;3.38;;;;;;;-0.65;73.71;101459.78;5157736;27;20301;-48
2021/03/09 07:28:59;;;;;;;9.25;4.00;;;;;;;-0.68;72.96;101455.31;5141561;27;20652;-50
2021/03/09 07:31:26;;;;;;;11.15;3.65;;;;;;;-0.79;73.26;101455.88;5137978;27;20199;-49
2021/03/09 07:33:53;;;;;;;13.48;3.53;;;;;;;-0.77;73.93;101455.28;5136267;27;20507;-49
2021/03/09 07:36:21;;;;;;;12.45;4.15;;;;;;;-0.74;74.59;101459.78;5137731;27;20340;-51
2021/03/09 07:38:50;;;;;;;9.23;3.47;;;;;;;-0.75;74.16;101458.88;5136240;27;20329;-48
2021/03/09 07:41:17;;;;;;;9.27;3.80;;;;;;;-0.76;74.42;101454.56;5137621;27;20209;-48
2021/03/09 07:43:43;;;;;;;18.42;4.90;;;;;;;-0.71;75.15;101460.97;5128261;27;20231;-49
2021/03/09 07:46:11;;;;;;;9.95;3.90;;;;;;;-0.70;74.73;101462.78;5138781;27;20209;-49
2021/03/09 07:48:37;;;;;;;10.63;4.05;;;;;;;-0.68;75.00;101460.38;5138594;27;20591;-51
2021/03/09 07:51:04;;;;;;;8.70;3.17;;;;;;;-0.72;75.16;101463.38;5155258;27;20198;-47
2021/03/09 07:53:30;;;;;;;10.02;3.72;;;;;;;-0.77;75.06;101464.56;5139815;27;20681;-49
2021/03/09 07:56:12;;;;;;;8.68;3.88;;;;;;;-0.85;75.97;101461.25;5143990;27;20311;-50
2021/03/09 07:58:38;;;;;;;12.02;4.85;;;;;;;-0.85;76.44;101461.25;5136449;27;20261;-49
2021/03/09 08:01:06;;;;;;;20.50;6.20;;;;;;;-0.83;76.62;101457.22;5137471;27;20281;-49
2021/03/09 08:03:34;;;;;;;12.23;4.40;;;;;;;-0.77;77.17;101467.97;5136057;27;20578;-49
2021/03/09 08:06:01;;;;;;;12.15;5.22;;;;;;;-0.72;77.19;101459.19;5137074;27;20541;-49
2021/03/09 08:08:41;;;;;;;18.45;7.07;;;;;;;-0.73;77.43;101457.38;5136370;27;20344;-48
2021/03/09 08:11:09;;;;;;;17.98;7.80;;;;;;;-0.68;78.09;101456.22;5137799;27;20287;-48
2021/03/09 08:13:35;;;;;;;12.57;5.55;;;;;;;-0.85;78.15;101456.19;5136452;27;20235;-46
2021/03/09 08:16:32;;;;;;;10.85;3.95;;;;;;;-0.84;77.72;101456.34;5136790;27;20198;-48
2021/03/09 08:19:10;;;;;;;10.57;4.35;;;;;;;-0.79;78.01;101455.88;5112292;28;20231;-49
2021/03/09 08:21:58;;;;;;;11.75;4.65;;;;;;;-0.80;78.50;101465.13;5127784;27;20200;-50
2021/03/09 08:24:50;;;;;;;11.50;4.10;;;;;;;-0.87;78.38;101462.75;5135028;27;20404;-52
2021/03/09 08:27:39;;;;;;;11.80;4.22;;;;;;;-0.91;78.74;101451.41;5137523;27;20210;-51
2021/03/09 08:30:39;;;;;;;7.93;3.83;;;;;;;-1.01;79.07;101454.69;5137060;27;20225;-53
2021/03/09 08:33:30;;;;;;;9.70;4.38;;;;;;;-0.93;79.52;101452.00;5136373;27;20241;-47
2021/03/09 08:35:58;;;;;;;9.52;4.70;;;;;;;-0.83;79.49;101454.69;5136819;27;20187;-47
2021/03/09 08:38:25;;;;;;;15.18;5.25;;;;;;;-0.82;79.65;101446.38;5135752;27;20234;-50
2021/03/09 08:41:18;;;;;;;9.18;4.20;;;;;;;-0.76;79.91;101451.13;5136922;27;20598;-51
2021/03/09 08:44:18;;;;;;;10.90;4.25;;;;;;;-0.77;79.65;101447.69;5136947;27;20507;-48
2021/03/09 08:46:52;;;;;;;11.60;4.80;;;;;;;-0.73;79.88;101441.28;5137067;27;20256;-50
2021/03/09 08:49:43;;;;;;;14.30;5.70;;;;;;;-0.75;79.52;101443.69;5135496;27;20229;-49
2021/03/09 08:52:12;;;;;;;11.70;4.75;;;;;;;-0.74;79.95;101436.97;5136811;27;20206;-50
2021/03/09 08:54:40;;;;;;;9.25;4.50;;;;;;;-0.62;79.94;101438.16;5134677;27;20248;-47
2021/03/09 08:57:10;;;;;;;17.52;7.05;;;;;;;-0.58;79.41;101441.88;5136908;27;20293;-48
2021/03/09 08:59:38;;;;;;;11.45;4.60;;;;;;;-0.52;79.38;101437.41;5118707;27;20222;-48
2021/03/09 09:02:07;;;;;;;9.00;4.55;;;;;;;-0.50;79.47;101433.41;5135550;27;20198;-47
2021/03/09 09:04:34;;;;;;;13.35;5.40;;;;;;;-0.52;79.33;101442.47;5123028;27;20522;-47
2021/03/09 09:07:18;;;;;;;12.95;5.72;;;;;;;-0.55;79.57;101432.94;5135685;27;20202;-48
2021/03/09 09:09:44;;;;;;;12.75;4.93;;;;;;;-0.62;79.74;101442.34;5124478;27;20316;-48
2021/03/09 09:12:28;;;;;;;10.57;5.20;;;;;;;-0.47;79.43;101441.28;5135648;27;20199;-50
2021/03/09 09:15:13;;;;;;;9.48;5.18;;;;;;;-0.42;79.85;101436.66;5123398;27;20669;-54
2021/03/09 09:17:42;;;;;;;12.68;4.70;;;;;;;-0.39;79.99;101438.59;5136104;27;20233;-50
2021/03/09 09:20:12;;;;;;;11.32;5.05;;;;;;;-0.42;80.15;101436.66;5134593;27;20591;-49
2021/03/09 09:22:39;;;;;;;16.65;5.53;;;;;;;-0.38;80.07;101437.84;5136237;27;20207;-49
2021/03/09 09:25:09;;;;;;;11.20;4.80;;;;;;;-0.38;80.19;101451.44;5134774;27;20223;-52
2021/03/09 09:27:47;;;;;;;13.80;5.40;;;;;;;-0.37;80.56;101447.28;5130999;27;20236;-51
2021/03/09 09:30:17;;;;;;;9.85;5.15;;;;;;;-0.45;80.63;101452.47;5131385;27;20218;-51
2021/03/09 09:32:56;;;;;;;15.18;6.30;;;;;;;-0.43;80.88;101448.47;5131116;27;20238;-49
2021/03/09 09:35:25;;;;;;;15.70;6.70;;;;;;;-0.19;82.43;101449.06;5136326;27;20230;-49
2021/03/09 09:37:56;;;;;;;18.33;6.05;;;;;;;0.02;81.17;101451.84;5135536;28;20302;-50
2021/03/09 09:40:25;;;;;;;12.27;5.75;;;;;;;0.46;79.20;101455.91;5123118;28;20321;-48
2021/03/09 09:42:56;;;;;;;12.70;6.25;;;;;;;0.57;80.37;101451.81;5138132;27;20229;-47
2021/03/09 09:45:23;;;;;;;35.90;12.98;;;;;;;0.87;79.06;101448.69;5145189;27;20234;-47
2021/03/09 09:47:51;;;;;;;18.23;7.25;;;;;;;0.57;78.18;101451.81;5150116;27;20240;-48
2021/03/09 09:50:18;;;;;;;13.80;7.00;;;;;;;0.18;79.36;101453.28;5150983;27;20309;-52
2021/03/09 09:52:53;;;;;;;31.20;13.52;;;;;;;0.76;78.96;101451.88;5153651;27;20212;-49
2021/03/09 09:55:21;;;;;;;16.35;7.05;;;;;;;0.74;78.23;101450.84;5149265;27;20546;-49
2021/03/09 09:57:52;;;;;;;15.98;6.90;;;;;;;0.89;78.05;101449.75;5153926;27;20237;-51
2021/03/09 10:00:21;;;;;;;14.18;6.60;;;;;;;0.57;78.13;101451.81;5144605;27;20240;-50
2021/03/09 10:03:06;;;;;;;15.63;6.80;;;;;;;0.72;77.78;101448.16;5152750;27;20232;-51
2021/03/09 10:05:33;;;;;;;16.27;8.10;;;;;;;0.72;78.21;101453.25;5151284;27;20524;-49
2021/03/09 10:08:00;;;;;;;24.73;10.50;;;;;;;1.09;77.77;101445.59;5153597;27;20488;-47
2021/03/09 10:10:27;;;;;;;20.87;9.40;;;;;;;1.20;77.45;101442.38;5152939;27;20507;-51
2021/03/09 10:12:54;;;;;;;17.48;6.97;;;;;;;1.12;76.59;101440.75;5151233;27;20559;-48
2021/03/09 10:15:21;;;;;;;18.10;7.47;;;;;;;1.31;76.31;101443.34;5150000;27;20237;-53
2021/03/09 10:17:48;;;;;;;15.83;7.40;;;;;;;1.07;76.11;101440.34;5155791;27;20454;-50
2021/03/09 10:20:20;;;;;;;16.97;6.63;;;;;;;0.76;77.15;101442.63;5150198;27;20455;-48
2021/03/09 10:22:47;;;;;;;15.67;7.20;;;;;;;1.05;77.37;101433.34;5153007;27;20459;-48
2021/03/09 10:25:16;;;;;;;16.40;7.10;;;;;;;1.19;77.68;101440.56;5136990;27;20471;-48
2021/03/09 10:27:43;;;;;;;19.50;8.93;;;;;;;1.08;77.68;101441.25;5150151;27;20554;-51
2021/03/09 10:30:10;;;;;;;21.03;8.63;;;;;;;1.08;78.42;101438.72;5141965;27;20948;-53
2021/03/09 10:32:50;;;;;;;18.50;8.13;;;;;;;0.88;77.94;101439.44;5150068;27;20494;-49
2021/03/09 10:35:18;;;;;;;19.33;8.35;;;;;;;0.79;78.13;101436.94;5152560;27;20463;-50
2021/03/09 10:37:45;;;;;;;16.13;7.90;;;;;;;0.82;77.79;101444.81;5143617;27;20231;-49
2021/03/09 10:40:13;;;;;;;22.20;7.30;;;;;;;0.83;77.90;101444.09;5125911;27;20508;-54
2021/03/09 10:42:47;;;;;;;14.50;7.00;;;;;;;0.88;77.33;101445.38;5141173;27;20954;-50
2021/03/09 10:45:25;;;;;;;17.27;6.60;;;;;;;0.81;77.93;101445.56;5139870;27;20445;-49
2021/03/09 10:47:52;;;;;;;15.43;7.13;;;;;;;0.88;77.50;101442.84;5143211;27;20569;-53
2021/03/09 10:50:21;;;;;;;14.47;7.13;;;;;;;0.86;76.85;101439.28;5141932;27;20536;-52
2021/03/09 10:52:48;;;;;;;15.47;7.03;;;;;;;0.89;76.80;101446.28;5147323;27;20447;-50
2021/03/09 10:55:14;;;;;;;17.33;7.17;;;;;;;0.99;76.62;101442.94;5146186;27;20449;-49
2021/03/09 10:57:41;;;;;;;15.00;7.43;;;;;;;0.99;76.47;101432.78;5152924;27;20613;-50
2021/03/09 11:00:11;;;;;;;16.97;7.80;;;;;;;0.93;76.38;101438.22;5146492;27;20531;-47
2021/03/09 11:02:37;;;;;;;15.70;6.53;;;;;;;1.03;75.81;101432.31;5142743;27;20849;-51
2021/03/09 11:05:06;;;;;;;15.73;7.50;;;;;;;0.97;75.39;101430.09;5146466;27;20908;-51
2021/03/09 11:07:33;;;;;;;17.20;8.00;;;;;;;0.98;75.28;101431.00;5151953;27;20605;-49
2021/03/09 11:09:59;;;;;;;15.10;6.33;;;;;;;0.96;75.31;101437.59;5154886;27;20567;-49
2021/03/09 11:12:26;;;;;;;20.80;7.60;;;;;;;1.12;74.74;101440.75;5153219;27;20459;-49
2021/03/09 11:14:53;;;;;;;28.10;12.40;;;;;;;1.09;75.01;101432.88;5154016;27;20558;-52
2021/03/09 11:17:20;;;;;;;22.20;7.40;;;;;;;1.15;73.98;101432.53;5155504;27;20443;-51
2021/03/09 11:19:47;;;;;;;20.20;7.30;;;;;;;1.02;74.33;101428.00;5145839;27;20447;-49
2021/03/09 11:22:14;;;;;;;21.30;9.67;;;;;;;0.98;73.75;101429.38;5154254;27;20531;-48
2021/03/09 11:24:41;;;;;;;14.70;7.10;;;;;;;1.00;73.62;101426.94;5154286;27;20451;-49
2021/03/09 11:27:09;;;;;;;16.63;7.20;;;;;;;1.07;74.09;101430.19;5155132;27;20511;-52
2021/03/09 11:29:37;;;;;;;16.03;7.40;;;;;;;1.14;73.41;101426.56;5152094;27;20490;-52
2021/03/09 11:32:04;;;;;;;14.93;6.40;;;;;;;1.27;72.65;101423.47;5153619;27;20433;-48
2021/03/09 11:34:32;;;;;;;21.00;8.80;;;;;;;1.38;72.76;101416.78;5153729;27;20485;-50
2021/03/09 11:36:59;;;;;;;13.03;6.87;;;;;;;1.39;72.65;101421.09;5149501;27;20875;-50
2021/03/09 11:39:26;;;;;;;12.17;6.90;;;;;;;1.52;70.63;101423.13;5137356;27;20560;-51